Time;durP1;ratioP1;P1;durP2;ratioP2;P2;SDS_P1;SDS_P2;PMS_P1;PMS_P2;Temp;Humidity;BMP_temperature;BMP_pressure;BME280_temperature;BME280_humidity;BME280_pressure;Samples;Min_cycle;Max_cycle;Signal;HPM_P1;HPM_P2
2023/03/28 00:01:43;0.00;0.00;0.62;0.00;0.00;0.62;2.80;1.37;;;23.20;22.60;;;;;;2272758;61;20880;-66
2023/03/28 00:04:28;0.00;0.00;0.62;0.00;0.00;0.62;2.60;1.47;;;23.20;22.60;;;;;;2272133;61;20460;-66
2023/03/28 00:07:13;0.00;0.00;0.62;0.00;0.00;0.62;2.10;0.97;;;23.20;22.60;;;;;;2272489;61;20374;-66
2023/03/28 00:09:58;0.00;0.00;0.62;0.00;0.00;0.62;1.80;0.90;;;23.10;22.50;;;;;;2271763;61;20416;-66
2023/03/28 00:12:43;0.00;0.00;0.62;0.00;0.00;0.62;1.77;1.00;;;23.10;22.60;;;;;;2272618;61;20412;-67
2023/03/28 00:15:29;0.00;0.00;0.62;0.00;0.00;0.62;1.93;1.03;;;23.10;22.50;;;;;;2272458;61;20874;-66
2023/03/28 00:18:14;0.00;0.00;0.62;0.00;0.00;0.62;1.63;0.97;;;23.10;22.60;;;;;;2271858;61;20448;-66
2023/03/28 00:20:59;0.00;0.00;0.62;0.00;0.00;0.62;1.90;1.10;;;23.10;22.60;;;;;;2272138;61;20366;-66
2023/03/28 00:23:43;0.00;0.00;0.62;0.00;0.00;0.62;1.73;1.00;;;23.10;22.60;;;;;;2272502;61;20484;-66
2023/03/28 00:26:31;0.00;0.00;0.62;0.00;0.00;0.62;2.30;1.40;;;23.10;22.60;;;;;;2272251;61;20933;-66
2023/03/28 00:29:19;0.00;0.00;0.62;0.00;0.00;0.62;4.13;1.00;;;23.10;22.60;;;;;;2271905;61;20533;-66
2023/03/28 00:32:06;0.00;0.00;0.62;0.00;0.00;0.62;2.43;1.30;;;23.10;22.60;;;;;;2272276;61;20358;-66
2023/03/28 00:34:51;0.00;0.00;0.62;0.00;0.00;0.62;2.30;1.27;;;23.10;22.60;;;;;;2269122;61;20386;-71
2023/03/28 00:37:35;0.00;0.00;0.62;0.00;0.00;0.62;2.00;1.20;;;23.00;22.50;;;;;;2272165;61;20376;-66
2023/03/28 00:40:20;0.00;0.00;0.62;0.00;0.00;0.62;2.33;1.43;;;23.00;22.60;;;;;;2268304;60;20603;-66
2023/03/28 00:43:05;0.00;0.00;0.62;0.00;0.00;0.62;1.73;1.10;;;23.00;22.60;;;;;;2268940;61;20450;-67
2023/03/28 00:45:50;0.00;0.00;0.62;0.00;0.00;0.62;1.50;0.80;;;23.00;22.60;;;;;;2269232;61;20466;-66
2023/03/28 00:48:40;0.00;0.00;0.62;0.00;0.00;0.62;2.07;1.27;;;23.00;22.60;;;;;;2271978;61;20366;-66
2023/03/28 00:51:30;0.00;0.00;0.62;0.00;0.00;0.62;1.73;1.23;;;23.00;22.60;;;;;;2272539;61;20386;-67
2023/03/28 00:54:18;0.00;0.00;0.62;0.00;0.00;0.62;1.83;1.00;;;23.00;22.60;;;;;;2268708;61;20425;-67
2023/03/28 00:57:03;0.00;0.00;0.62;0.00;0.00;0.62;1.70;1.13;;;23.00;22.60;;;;;;2272415;61;20382;-66
2023/03/28 00:59:48;0.00;0.00;0.62;0.00;0.00;0.62;2.93;1.60;;;23.00;22.60;;;;;;2271829;61;20361;-66
2023/03/28 01:02:32;0.00;0.00;0.62;0.00;0.00;0.62;2.13;1.33;;;23.00;22.60;;;;;;2268643;61;20480;-66
2023/03/28 01:05:25;0.00;0.00;0.62;0.00;0.00;0.62;1.73;1.00;;;23.00;22.60;;;;;;2272390;61;20415;-66
2023/03/28 01:08:16;0.00;0.00;0.62;0.00;0.00;0.62;2.60;1.00;;;23.00;22.60;;;;;;2272567;61;20362;-66
2023/03/28 01:11:02;0.00;0.00;0.62;0.00;0.00;0.62;2.17;1.10;;;23.00;22.70;;;;;;2271347;61;20354;-66
2023/03/28 01:13:50;0.00;0.00;0.62;0.00;0.00;0.62;1.53;1.00;;;22.90;22.60;;;;;;2269221;61;20411;-66
2023/03/28 01:16:40;0.00;0.00;0.62;0.00;0.00;0.62;3.60;1.10;;;22.90;22.60;;;;;;2268727;61;20378;-67
2023/03/28 01:19:43;0.00;0.00;0.62;0.00;0.00;0.62;2.73;1.10;;;22.90;22.60;;;;;;2269024;61;20366;-66
2023/03/28 01:23:22;0.00;0.00;0.62;0.00;0.00;0.62;1.40;0.80;;;22.90;22.60;;;;;;2269031;61;20415;-66
2023/03/28 01:26:46;0.00;0.00;0.62;0.00;0.00;0.62;1.63;0.97;;;22.90;22.60;;;;;;2272353;61;20947;-66
2023/03/28 01:30:35;0.00;0.00;0.62;0.00;0.00;0.62;1.57;1.00;;;22.90;22.60;;;;;;2268525;61;21019;-66
2023/03/28 01:34:18;0.00;0.00;0.62;0.00;0.00;0.62;1.80;0.90;;;22.90;22.60;;;;;;2265315;61;20459;-66
2023/03/28 01:37:33;0.00;0.00;0.62;0.00;0.00;0.62;1.70;1.03;;;22.90;22.70;;;;;;2268961;61;20476;-66
2023/03/28 01:40:32;0.00;0.00;0.62;0.00;0.00;0.62;1.90;0.87;;;22.90;22.70;;;;;;2268003;61;20363;-66
2023/03/28 01:43:33;0.00;0.00;0.62;0.00;0.00;0.62;1.77;0.80;;;22.90;22.70;;;;;;2268984;61;20400;-66
2023/03/28 01:46:22;0.00;0.00;0.62;0.00;0.00;0.62;1.93;0.90;;;22.80;22.60;;;;;;2268638;61;20374;-66
2023/03/28 01:49:15;0.00;0.00;0.62;0.00;0.00;0.62;2.40;1.03;;;22.80;22.60;;;;;;2272019;61;20757;-66
2023/03/28 01:52:07;0.00;0.00;0.62;0.00;0.00;0.62;2.20;1.00;;;22.80;22.60;;;;;;2268975;61;20493;-66
2023/03/28 01:55:04;0.00;0.00;0.62;0.00;0.00;0.62;1.50;0.90;;;22.80;22.60;;;;;;2268261;61;20444;-67
2023/03/28 01:57:58;0.00;0.00;0.62;0.00;0.00;0.62;1.60;0.90;;;22.80;23.20;;;;;;2269126;61;20914;-66
2023/03/28 02:01:04;0.00;0.00;0.62;0.00;0.00;0.62;2.17;1.10;;;22.80;22.60;;;;;;2268554;61;20763;-66
2023/03/28 02:04:00;0.00;0.00;0.62;0.00;0.00;0.62;3.37;1.20;;;22.80;22.70;;;;;;2269029;61;20354;-66
2023/03/28 02:06:57;0.00;0.00;0.62;0.00;0.00;0.62;1.67;0.77;;;22.80;22.70;;;;;;2272152;61;20374;-67
2023/03/28 02:09:47;0.00;0.00;0.62;0.00;0.00;0.62;1.60;1.00;;;22.80;22.60;;;;;;2267860;61;20362;-66
2023/03/28 02:13:07;0.00;0.00;0.62;0.00;0.00;0.62;1.83;0.83;;;22.80;22.70;;;;;;2268831;61;20894;-66
2023/03/28 02:16:22;0.00;0.00;0.62;0.00;0.00;0.62;1.47;1.00;;;22.80;22.70;;;;;;2269311;61;20437;-66
2023/03/28 02:19:30;0.00;0.00;0.62;0.00;0.00;0.62;1.80;1.00;;;22.80;22.70;;;;;;2271655;61;20439;-66
2023/03/28 02:22:30;0.00;0.00;0.62;0.00;0.00;0.62;1.50;0.73;;;22.80;22.70;;;;;;2269172;61;20430;-66
2023/03/28 02:25:18;0.00;0.00;0.62;0.00;0.00;0.62;1.73;0.90;;;22.70;22.60;;;;;;2271854;61;20358;-66
2023/03/28 02:28:18;0.00;0.00;0.62;0.00;0.00;0.62;1.70;0.70;;;22.70;22.60;;;;;;2268978;61;20401;-67
2023/03/28 02:31:22;0.00;0.00;0.62;0.00;0.00;0.62;1.90;1.00;;;22.70;22.60;;;;;;2271478;61;20358;-66
2023/03/28 02:34:09;0.00;0.00;0.62;0.00;0.00;0.62;1.87;1.00;;;22.70;22.60;;;;;;2268781;61;20409;-66
2023/03/28 02:37:09;0.00;0.00;0.62;0.00;0.00;0.62;2.33;1.40;;;22.70;22.70;;;;;;2268980;61;20511;-66
2023/03/28 02:40:09;0.00;0.00;0.62;0.00;0.00;0.62;1.50;0.80;;;22.70;22.70;;;;;;2271347;61;20396;-66
2023/03/28 02:43:19;0.00;0.00;0.62;0.00;0.00;0.62;1.77;0.90;;;22.70;22.70;;;;;;2268859;61;20443;-66
2023/03/28 02:46:22;0.00;0.00;0.62;0.00;0.00;0.62;1.60;0.80;;;22.70;22.70;;;;;;2271540;61;20390;-66
2023/03/28 02:49:33;0.00;0.00;0.62;0.00;0.00;0.62;1.77;0.97;;;22.70;22.70;;;;;;2268307;61;20361;-66
2023/03/28 02:52:33;0.00;0.00;0.62;0.00;0.00;0.62;1.60;1.00;;;22.70;22.70;;;;;;2272319;61;20435;-66
2023/03/28 02:55:25;0.00;0.00;0.62;0.00;0.00;0.62;1.60;0.90;;;22.60;22.60;;;;;;2271663;61;20390;-68
2023/03/28 02:58:28;0.00;0.00;0.62;0.00;0.00;0.62;1.30;0.70;;;22.70;22.70;;;;;;2268955;61;20361;-67
2023/03/28 03:01:16;0.00;0.00;0.62;0.00;0.00;0.62;3.00;1.33;;;22.60;22.70;;;;;;2267830;61;20354;-66
2023/03/28 03:04:01;0.00;0.00;0.62;0.00;0.00;0.62;1.67;0.87;;;22.60;22.70;;;;;;2269065;61;20867;-66
2023/03/28 03:06:48;0.00;0.00;0.62;0.00;0.00;0.62;1.60;0.70;;;22.60;22.70;;;;;;2280943;39;20945;-66
2023/03/28 03:09:34;0.00;0.00;0.62;0.00;0.00;0.62;1.53;0.70;;;22.60;22.70;;;;;;2263929;61;20427;-66
2023/03/28 03:12:20;0.00;0.00;0.62;0.00;0.00;0.62;1.90;0.80;;;22.60;22.70;;;;;;2261538;61;20399;-66
2023/03/28 03:15:09;0.00;0.00;0.62;0.00;0.00;0.62;1.63;0.90;;;22.60;22.70;;;;;;2260840;61;20391;-67
2023/03/28 03:18:03;0.00;0.00;0.62;0.00;0.00;0.62;2.37;0.83;;;22.60;22.70;;;;;;2260903;61;20403;-66
2023/03/28 03:20:50;0.00;0.00;0.62;0.00;0.00;0.62;1.70;0.90;;;22.60;22.70;;;;;;2260213;61;20412;-71
2023/03/28 03:23:35;0.00;0.00;0.62;0.00;0.00;0.62;1.77;0.90;;;22.60;22.70;;;;;;2259641;61;20380;-66
2023/03/28 03:26:21;0.00;0.00;0.62;0.00;0.00;0.62;1.63;0.80;;;22.60;22.70;;;;;;2260791;61;20471;-67
2023/03/28 03:29:22;0.00;0.00;0.62;0.00;0.00;0.62;2.23;0.80;;;22.60;22.70;;;;;;2257039;61;20889;-66
2023/03/28 03:32:09;0.00;0.00;0.62;0.00;0.00;0.62;1.50;0.90;;;22.60;22.70;;;;;;2257165;61;20397;-66
2023/03/28 03:35:04;0.00;0.00;0.62;0.00;0.00;0.62;1.80;0.90;;;22.60;22.70;;;;;;2257151;61;20473;-67
2023/03/28 03:37:49;0.00;0.00;0.62;0.00;0.00;0.62;1.80;0.90;;;22.60;22.70;;;;;;2260073;61;20411;-66
2023/03/28 03:40:34;0.00;0.00;0.62;0.00;0.00;0.62;1.50;0.77;;;22.50;22.70;;;;;;2256992;61;20889;-67
2023/03/28 03:43:19;0.00;0.00;0.62;0.00;0.00;0.62;1.87;0.80;;;22.50;22.70;;;;;;2257326;61;20408;-66
2023/03/28 03:46:05;0.00;0.00;0.62;0.00;0.00;0.62;1.30;0.70;;;22.50;22.70;;;;;;2256722;61;20404;-70
2023/03/28 03:48:51;0.00;0.00;0.62;0.00;0.00;0.62;1.40;0.80;;;22.50;22.70;;;;;;2260445;61;20880;-66
2023/03/28 03:51:37;0.00;0.00;0.62;0.00;0.00;0.62;2.60;0.87;;;22.50;22.70;;;;;;2259784;61;20411;-66
2023/03/28 03:54:22;0.00;0.00;0.62;0.00;0.00;0.62;1.43;0.70;;;22.50;22.70;;;;;;2257036;61;20822;-66
2023/03/28 03:57:07;0.00;0.00;0.62;0.00;0.00;0.62;1.83;0.70;;;22.50;22.70;;;;;;2257218;61;20396;-66
2023/03/28 03:59:52;0.00;0.00;0.62;0.00;0.00;0.62;2.00;1.00;;;22.50;22.70;;;;;;2256248;61;20420;-66
2023/03/28 04:02:38;0.00;0.00;0.62;0.00;0.00;0.62;1.70;0.90;;;22.50;22.70;;;;;;2257208;61;20439;-66
2023/03/28 04:05:25;0.00;0.00;0.62;0.00;0.00;0.62;1.40;0.70;;;22.50;22.70;;;;;;2257199;61;20360;-67
2023/03/28 04:08:22;0.00;0.00;0.62;0.00;0.00;0.62;1.50;0.70;;;22.50;22.70;;;;;;2256738;61;20377;-67
2023/03/28 04:11:09;0.00;0.00;0.62;0.00;0.00;0.62;1.80;0.70;;;22.50;22.70;;;;;;2256826;61;20361;-66
2023/03/28 04:13:59;0.00;0.00;0.62;0.00;0.00;0.62;1.87;0.80;;;22.50;22.70;;;;;;2256850;61;20356;-66
2023/03/28 04:16:44;0.00;0.00;0.62;0.00;0.00;0.62;1.47;0.80;;;22.50;22.70;;;;;;2260047;61;20378;-66
2023/03/28 04:19:28;0.00;0.00;0.62;0.00;0.00;0.62;1.53;0.90;;;22.40;22.70;;;;;;2256807;61;20400;-66
2023/03/28 04:22:17;0.00;0.00;0.62;0.00;0.00;0.62;1.40;0.73;;;22.40;22.70;;;;;;2256572;61;20357;-66
2023/03/28 04:25:08;0.00;0.00;0.62;0.00;0.00;0.62;1.40;0.80;;;22.40;22.70;;;;;;2257002;61;20366;-66
2023/03/28 04:27:55;0.00;0.00;0.62;0.00;0.00;0.62;2.30;0.80;;;22.40;22.70;;;;;;2260015;61;20364;-69
2023/03/28 04:30:43;0.00;0.00;0.62;0.00;0.00;0.62;1.40;0.80;;;22.40;22.70;;;;;;2256032;61;20360;-66
2023/03/28 04:34:00;0.00;0.00;0.62;0.00;0.00;0.62;2.17;0.90;;;22.40;22.70;;;;;;2260331;61;20365;-67
2023/03/28 04:36:45;0.00;0.00;0.62;0.00;0.00;0.62;2.00;0.83;;;22.40;22.70;;;;;;2259235;61;20380;-66
2023/03/28 04:39:36;0.00;0.00;0.62;0.00;0.00;0.62;1.50;0.87;;;22.40;22.70;;;;;;2256717;61;20873;-66
2023/03/28 04:42:47;0.00;0.00;0.62;0.00;0.00;0.62;1.57;1.03;;;22.40;22.70;;;;;;2260496;61;20403;-66
2023/03/28 04:45:50;0.00;0.00;0.62;0.00;0.00;0.62;1.60;0.83;;;22.40;22.70;;;;;;2256512;61;20419;-66
2023/03/28 04:48:35;0.00;0.00;0.62;0.00;0.00;0.62;1.47;0.70;;;22.40;22.70;;;;;;2259984;61;20499;-66
2023/03/28 04:51:20;0.00;0.00;0.62;0.00;0.00;0.62;1.80;0.80;;;22.40;22.70;;;;;;2259940;61;20441;-66
2023/03/28 04:54:05;0.00;0.00;0.62;0.00;0.00;0.62;1.70;0.87;;;22.40;22.80;;;;;;2257070;61;20357;-66
2023/03/28 04:57:04;0.00;0.00;0.62;0.00;0.00;0.62;1.57;0.73;;;22.40;22.80;;;;;;2260448;61;20421;-67
2023/03/28 05:00:00;0.00;0.00;0.62;0.00;0.00;0.62;2.13;1.00;;;22.40;22.80;;;;;;2255826;61;20959;-67
2023/03/28 05:03:09;0.00;0.00;0.62;0.00;0.00;0.62;1.50;0.70;;;22.40;22.80;;;;;;2260337;61;20356;-66
2023/03/28 05:06:04;0.00;0.00;0.62;0.00;0.00;0.62;1.63;0.93;;;22.30;22.70;;;;;;2259451;61;20400;-66
2023/03/28 05:08:49;0.00;0.00;0.62;0.00;0.00;0.62;2.10;0.93;;;22.30;22.70;;;;;;2256961;61;20419;-66
2023/03/28 05:11:34;0.00;0.00;0.62;0.00;0.00;0.62;1.87;0.87;;;22.30;22.70;;;;;;2256993;61;20369;-66
2023/03/28 05:14:21;0.00;0.00;0.62;0.00;0.00;0.62;1.90;0.90;;;22.30;22.70;;;;;;2256127;61;20427;-66
2023/03/28 05:17:09;0.00;0.00;0.62;0.00;0.00;0.62;2.00;1.27;;;22.30;22.70;;;;;;2259806;61;20381;-67
2023/03/28 05:20:18;0.00;0.00;0.62;0.00;0.00;0.62;1.80;1.07;;;22.30;22.70;;;;;;2259292;61;20400;-66
2023/03/28 05:23:08;0.00;0.00;0.62;0.00;0.00;0.62;2.60;1.10;;;22.30;22.70;;;;;;2259471;61;20384;-67
2023/03/28 05:25:57;0.00;0.00;0.62;0.00;0.00;0.62;1.87;1.30;;;22.30;22.80;;;;;;2259581;61;20381;-65
2023/03/28 05:28:44;0.00;0.00;0.62;0.00;0.00;0.62;1.60;0.90;;;22.30;22.80;;;;;;2256065;61;20496;-66
2023/03/28 05:31:30;0.00;0.00;0.62;0.00;0.00;0.62;2.60;1.37;;;22.30;22.80;;;;;;2256968;61;20833;-66
2023/03/28 05:34:33;0.00;0.00;0.62;0.00;0.00;0.62;2.73;1.10;;;22.30;22.80;;;;;;2254546;61;20365;-66
2023/03/28 05:40:27;0.00;0.00;0.62;0.00;0.00;0.62;1.60;1.00;;;22.30;22.80;;;;;;2270349;61;20417;-66
2023/03/28 05:43:12;0.00;0.00;0.62;0.00;0.00;0.62;2.50;1.40;;;22.30;22.80;;;;;;2268455;61;20369;-66
2023/03/28 05:45:57;0.00;0.00;0.62;0.00;0.00;0.62;2.97;1.17;;;22.30;22.80;;;;;;2269015;61;20394;-66
2023/03/28 05:48:51;0.00;0.00;0.62;0.00;0.00;0.62;2.70;1.27;;;22.30;22.80;;;;;;2268787;61;20949;-66
2023/03/28 05:51:36;0.00;0.00;0.62;0.00;0.00;0.62;1.93;1.10;;;22.30;22.80;;;;;;2268379;61;20366;-66
2023/03/28 05:54:21;0.00;0.00;0.62;0.00;0.00;0.62;2.00;1.30;;;22.30;22.80;;;;;;2272262;61;20362;-66
2023/03/28 05:57:05;0.00;0.00;0.62;0.00;0.00;0.62;2.03;1.33;;;22.30;22.80;;;;;;2271998;61;20957;-66
2023/03/28 05:59:50;0.00;0.00;0.62;0.00;0.00;0.62;1.90;1.10;;;22.20;22.70;;;;;;2271549;61;20929;-66
2023/03/28 06:02:39;0.00;0.00;0.62;0.00;0.00;0.62;1.60;0.97;;;22.20;22.80;;;;;;2268840;61;20408;-66
2023/03/28 06:05:26;0.00;0.00;0.62;0.00;0.00;0.62;1.80;1.10;;;22.20;22.80;;;;;;2268287;61;20374;-67
2023/03/28 06:08:11;0.00;0.00;0.62;0.00;0.00;0.62;1.80;1.10;;;22.20;22.70;;;;;;2268890;61;20427;-66
2023/03/28 06:10:59;0.00;0.00;0.62;0.00;0.00;0.62;2.33;1.40;;;22.20;22.80;;;;;;2268385;61;20413;-71
2023/03/28 06:13:47;0.00;0.00;0.62;0.00;0.00;0.62;2.17;1.10;;;22.20;22.80;;;;;;2268510;61;20456;-66
2023/03/28 06:16:33;0.00;0.00;0.62;0.00;0.00;0.62;2.37;1.07;;;22.20;22.80;;;;;;2268849;61;20390;-70
2023/03/28 06:19:18;0.00;0.00;0.62;0.00;0.00;0.62;2.17;1.30;;;22.20;22.80;;;;;;2265687;61;20412;-66
2023/03/28 06:22:09;0.00;0.00;0.62;0.00;0.00;0.62;1.87;1.10;;;22.20;22.80;;;;;;2268737;61;20486;-68
2023/03/28 06:24:54;0.00;0.00;0.62;0.00;0.00;0.62;1.70;1.00;;;22.20;22.80;;;;;;2268915;61;20363;-66
2023/03/28 06:27:48;0.00;0.00;0.62;0.00;0.00;0.62;1.77;1.10;;;22.20;22.80;;;;;;2268369;61;20505;-66
2023/03/28 06:30:33;0.00;0.00;0.62;0.00;0.00;0.62;2.10;1.10;;;22.20;22.80;;;;;;2268607;61;20423;-66
2023/03/28 06:33:18;0.00;0.00;0.62;0.00;0.00;0.62;1.70;1.17;;;22.20;22.80;;;;;;2268743;61;20389;-66
2023/03/28 06:36:04;0.00;0.00;0.62;0.00;0.00;0.62;2.00;1.40;;;22.20;22.80;;;;;;2271508;61;20410;-66
2023/03/28 06:38:53;0.00;0.00;0.62;0.00;0.00;0.62;2.27;1.37;;;22.20;22.80;;;;;;2271551;60;20425;-66
2023/03/28 06:41:40;0.00;0.00;0.62;0.00;0.00;0.62;2.33;1.10;;;22.20;22.80;;;;;;2269726;61;20362;-66
2023/03/28 06:44:25;0.00;0.00;0.62;0.00;0.00;0.62;1.90;1.23;;;22.20;22.80;;;;;;2272726;61;20480;-66
2023/03/28 06:47:29;0.00;0.00;0.62;0.00;0.00;0.62;1.97;1.20;;;22.20;22.80;;;;;;2272770;61;20989;-71
2023/03/28 06:50:13;0.00;0.00;0.62;0.00;0.00;0.62;2.60;1.40;;;22.20;22.80;;;;;;2271670;61;20409;-66
2023/03/28 06:53:09;0.00;0.00;0.62;0.00;0.00;0.62;2.73;1.13;;;22.20;22.80;;;;;;2269775;61;20654;-66
2023/03/28 06:55:56;0.00;0.00;0.62;0.00;0.00;0.62;1.90;1.13;;;22.20;22.80;;;;;;2266614;61;20394;-67
2023/03/28 06:58:41;0.00;0.00;0.62;0.00;0.00;0.62;2.30;1.10;;;22.20;22.80;;;;;;2268855;61;20370;-66
2023/03/28 07:01:29;0.00;0.00;0.62;0.00;0.00;0.62;2.57;1.17;;;22.20;22.80;;;;;;2269528;61;20361;-66
2023/03/28 07:04:27;0.00;0.00;0.62;0.00;0.00;0.62;2.37;1.33;;;22.20;22.80;;;;;;2266856;61;20393;-66
2023/03/28 07:07:11;0.00;0.00;0.62;0.00;0.00;0.62;2.13;1.20;;;22.20;23.40;;;;;;2269518;61;21002;-66
2023/03/28 07:09:57;0.00;0.00;0.62;0.00;0.00;0.62;3.30;1.20;;;22.20;22.90;;;;;;2269074;61;20366;-66
2023/03/28 07:12:43;0.00;0.00;0.62;0.00;0.00;0.62;1.87;1.03;;;22.20;22.90;;;;;;2269028;61;20374;-66
2023/03/28 07:15:28;0.00;0.00;0.62;0.00;0.00;0.62;1.83;1.00;;;22.20;22.90;;;;;;2272582;61;20922;-66
2023/03/28 07:18:12;0.00;0.00;0.62;0.00;0.00;0.62;2.33;1.30;;;22.20;22.90;;;;;;2269392;61;20381;-66
2023/03/28 07:20:58;0.00;0.00;0.62;0.00;0.00;0.62;2.20;1.20;;;22.20;22.90;;;;;;2268770;61;20848;-66
2023/03/28 07:23:43;0.00;0.00;0.62;0.00;0.00;0.62;1.97;1.10;;;22.20;22.90;;;;;;2268758;61;20415;-66
2023/03/28 07:26:30;0.00;0.00;0.62;0.00;0.00;0.62;2.10;1.10;;;22.20;22.90;;;;;;2269038;61;20512;-66
2023/03/28 07:29:16;0.00;0.00;0.62;0.00;0.00;0.62;2.07;1.30;;;22.20;22.90;;;;;;2268953;61;20354;-66
2023/03/28 07:32:01;0.00;0.00;0.62;0.00;0.00;0.62;1.50;0.90;;;22.20;22.90;;;;;;2269392;61;20450;-67
2023/03/28 07:34:46;0.00;0.00;0.62;0.00;0.00;0.62;1.90;0.83;;;22.20;22.90;;;;;;2268656;61;20460;-66
2023/03/28 07:37:37;0.00;0.00;0.62;0.00;0.00;0.62;1.40;0.80;;;22.20;22.90;;;;;;2269234;61;20468;-66
2023/03/28 07:40:26;0.00;0.00;0.62;0.00;0.00;0.62;2.23;1.00;;;22.20;22.90;;;;;;2269266;61;20416;-66
2023/03/28 07:43:12;0.00;0.00;0.62;0.00;0.00;0.62;2.67;1.57;;;22.20;22.90;;;;;;2268614;61;20454;-66
2023/03/28 07:46:05;0.00;0.00;0.62;0.00;0.00;0.62;1.87;1.00;;;22.20;22.90;;;;;;2272662;61;20968;-66
2023/03/28 07:48:49;0.00;0.00;0.62;0.00;0.00;0.62;1.97;1.07;;;22.20;22.90;;;;;;2272347;61;20363;-66
2023/03/28 07:51:34;0.00;0.00;0.62;0.00;0.00;0.62;2.40;1.37;;;22.20;22.90;;;;;;2269265;61;20842;-66
2023/03/28 07:54:20;0.00;0.00;0.62;0.00;0.00;0.62;1.83;1.00;;;22.20;22.90;;;;;;2269400;61;20444;-66
2023/03/28 07:57:06;0.00;0.00;0.62;0.00;0.00;0.62;1.73;1.07;;;22.20;22.90;;;;;;2268821;61;20381;-66
2023/03/28 08:00:22;0.00;0.00;0.62;0.00;0.00;0.62;2.63;1.20;;;22.20;22.90;;;;;;2271137;61;20377;-65
2023/03/28 08:03:29;0.00;0.00;0.62;0.00;0.00;0.62;1.87;1.10;;;22.20;22.90;;;;;;2272104;61;20432;-66
2023/03/28 08:06:14;0.00;0.00;0.62;0.00;0.00;0.62;1.80;1.13;;;22.20;22.90;;;;;;2269223;61;20378;-66
2023/03/28 08:09:00;0.00;0.00;0.62;0.00;0.00;0.62;2.60;1.13;;;22.20;23.40;;;;;;2269176;61;20358;-66
2023/03/28 08:12:06;0.00;0.00;0.62;0.00;0.00;0.62;2.63;1.37;;;22.20;22.90;;;;;;2269469;61;20362;-66
2023/03/28 08:14:51;0.00;0.00;0.62;0.00;0.00;0.62;2.10;1.37;;;22.20;22.90;;;;;;2269253;61;20366;-67
2023/03/28 08:17:39;0.00;0.00;0.62;0.00;0.00;0.62;2.43;1.50;;;22.20;22.90;;;;;;2269169;61;20358;-66
2023/03/28 08:20:26;0.00;0.00;0.62;0.00;0.00;0.62;1.97;1.13;;;22.20;22.90;;;;;;2265364;61;20425;-68
2023/03/28 08:23:31;0.00;0.00;0.62;0.00;0.00;0.62;2.47;1.47;;;22.20;22.90;;;;;;2268417;61;20398;-67
2023/03/28 08:26:51;0.00;0.00;0.62;0.00;0.00;0.62;1.90;1.33;;;22.20;22.90;;;;;;2266126;61;20943;-66
2023/03/28 08:29:36;0.00;0.00;0.62;0.00;0.00;0.62;2.50;1.50;;;22.20;23.00;;;;;;2264920;61;20382;-66
2023/03/28 08:32:21;0.00;0.00;0.62;0.00;0.00;0.62;1.97;1.60;;;22.20;23.00;;;;;;2268384;61;20367;-66
2023/03/28 08:35:07;0.00;0.00;0.62;0.00;0.00;0.62;2.50;1.50;;;22.20;23.00;;;;;;2264570;61;20387;-66
2023/03/28 08:37:54;0.00;0.00;0.62;0.00;0.00;0.62;2.50;1.77;;;22.20;23.00;;;;;;2265380;61;20371;-66
2023/03/28 08:40:46;0.00;0.00;0.62;0.00;0.00;0.62;2.43;1.83;;;22.20;23.00;;;;;;2264170;61;20385;-66
2023/03/28 08:43:59;0.00;0.00;0.62;0.00;0.00;0.62;3.50;2.07;;;22.20;23.00;;;;;;2265095;61;20765;-66
2023/03/28 08:46:47;0.00;0.00;0.62;0.00;0.00;0.62;2.80;1.90;;;22.20;23.00;;;;;;2265009;61;20379;-66
2023/03/28 08:49:36;0.00;0.00;0.62;0.00;0.00;0.62;3.80;2.07;;;22.20;23.00;;;;;;2267379;61;20370;-66
2023/03/28 08:52:22;0.00;0.00;0.62;0.00;0.00;0.62;4.40;2.70;;;22.20;23.00;;;;;;2265297;61;20363;-67
2023/03/28 08:55:27;0.00;0.00;0.62;0.00;0.00;0.62;4.40;3.10;;;22.20;23.00;;;;;;2264759;61;20410;-66
2023/03/28 08:58:22;0.00;0.00;0.62;0.00;0.00;0.62;3.80;3.23;;;22.20;23.00;;;;;;2265347;61;20375;-66
2023/03/28 09:01:09;0.00;0.00;0.62;0.00;0.00;0.62;4.07;2.97;;;22.20;23.00;;;;;;2264861;61;20366;-67
2023/03/28 09:03:53;0.00;0.00;0.62;0.00;0.00;0.62;4.27;2.80;;;22.20;23.00;;;;;;2267650;61;20887;-66
2023/03/28 09:06:48;0.00;0.00;0.62;0.00;0.00;0.62;3.87;2.97;;;22.20;23.00;;;;;;2265144;61;20429;-66
2023/03/28 09:09:43;0.00;0.00;0.62;0.00;0.00;0.62;4.83;3.40;;;22.20;23.00;;;;;;2264656;61;20764;-66
2023/03/28 09:13:07;0.00;0.00;0.62;0.00;0.00;0.62;3.90;3.13;;;22.20;23.00;;;;;;2268280;61;20371;-66
2023/03/28 09:16:07;0.00;0.00;0.62;0.00;0.00;0.62;4.67;3.67;;;22.30;23.00;;;;;;2264943;61;20390;-67
2023/03/28 09:19:29;0.00;0.00;0.62;0.00;0.00;0.62;4.47;3.73;;;22.20;23.00;;;;;;2264308;61;20366;-66
2023/03/28 09:22:36;0.00;0.00;0.62;0.00;0.00;0.62;5.60;3.63;;;22.30;23.00;;;;;;2264876;61;20362;-64
2023/03/28 09:25:31;0.00;0.00;0.62;0.00;0.00;0.62;4.60;3.60;;;22.30;23.00;;;;;;2264623;61;20799;-64
2023/03/28 09:28:34;0.00;0.00;0.62;0.00;0.00;0.62;5.67;3.97;;;22.30;23.10;;;;;;2265606;61;20362;-64
2023/03/28 09:31:25;0.00;0.00;0.62;0.00;0.00;0.62;5.63;4.13;;;22.30;23.10;;;;;;2269260;61;20362;-63
2023/03/28 09:34:18;0.00;0.00;0.62;0.00;0.00;0.62;5.13;3.30;;;22.30;23.10;;;;;;2268545;61;20830;-62
2023/03/28 09:37:16;0.00;0.00;0.62;0.00;0.00;0.62;3.60;3.30;;;22.30;23.10;;;;;;2268980;61;20572;-63
2023/03/28 09:40:16;0.00;0.00;0.62;0.00;0.00;0.62;5.60;3.63;;;22.40;23.20;;;;;;2268165;61;20414;-62
2023/03/28 09:43:32;0.00;0.00;0.62;0.00;0.00;0.62;4.97;3.43;;;22.30;23.10;;;;;;2272109;61;20362;-64
2023/03/28 09:46:42;0.00;0.00;0.62;0.00;0.00;0.62;6.43;3.93;;;22.40;23.20;;;;;;2269048;61;20385;-63
2023/03/28 09:49:33;0.00;0.00;0.62;0.00;0.00;0.62;4.50;3.73;;;22.40;23.20;;;;;;2270834;61;20390;-61
2023/03/28 09:52:29;0.00;0.00;0.62;0.00;0.00;0.62;4.67;3.43;;;22.40;23.20;;;;;;2269237;61;20793;-63
2023/03/28 09:55:17;0.00;0.00;0.62;0.00;0.00;0.62;4.63;3.47;;;22.40;23.20;;;;;;2268658;61;20385;-61
2023/03/28 09:58:06;0.00;0.00;0.62;0.00;0.00;0.62;4.43;3.60;;;22.40;23.20;;;;;;2269046;61;20362;-62
2023/03/28 10:01:24;0.00;0.00;0.62;0.00;0.00;0.62;5.13;4.07;;;22.40;23.30;;;;;;2268860;61;20362;-61
2023/03/28 10:04:34;0.00;0.00;0.62;0.00;0.00;0.62;5.07;3.87;;;22.50;23.40;;;;;;2272356;61;20363;-64
2023/03/28 10:07:43;0.00;0.00;0.62;0.00;0.00;0.62;5.03;3.90;;;22.50;23.40;;;;;;2270996;61;20428;-64
2023/03/28 10:10:59;0.00;0.00;0.62;0.00;0.00;0.62;4.77;3.47;;;22.50;23.40;;;;;;2271194;61;20835;-63
2023/03/28 10:13:47;0.00;0.00;0.62;0.00;0.00;0.62;5.37;4.20;;;22.50;23.40;;;;;;2269659;61;20358;-59
2023/03/28 10:16:34;0.00;0.00;0.62;0.00;0.00;0.62;5.33;4.57;;;22.50;23.40;;;;;;2271709;61;20433;-64
2023/03/28 10:19:22;0.00;0.00;0.62;0.00;0.00;0.62;5.00;3.83;;;22.60;23.50;;;;;;2272036;61;20370;-58
2023/03/28 10:22:33;0.00;0.00;0.62;0.00;0.00;0.62;4.70;3.77;;;22.60;23.50;;;;;;2271725;61;20417;-64
2023/03/28 10:25:21;0.00;0.00;0.62;0.00;0.00;0.62;4.93;4.20;;;22.60;23.50;;;;;;2269113;61;20367;-61
2023/03/28 10:28:13;0.00;0.00;0.62;0.00;0.00;0.62;4.80;4.07;;;22.70;24.10;;;;;;2272863;61;20389;-64
2023/03/28 10:31:01;0.00;0.00;0.62;0.00;0.00;0.62;6.17;5.07;;;22.70;23.70;;;;;;2268634;61;20506;-65
2023/03/28 10:33:52;0.00;0.00;0.62;0.00;0.00;0.62;7.00;4.73;;;22.70;23.70;;;;;;2268745;61;20366;-65
2023/03/28 10:37:02;0.00;0.00;0.62;0.00;0.00;0.62;7.30;5.37;;;22.80;23.80;;;;;;2272414;61;20401;-64
2023/03/28 10:40:23;0.00;0.00;0.62;0.00;0.00;0.62;6.30;5.00;;;22.80;23.80;;;;;;2266030;61;20493;-63
2023/03/28 10:43:36;0.00;0.00;0.62;0.00;0.00;0.62;5.70;4.77;;;22.80;23.80;;;;;;2272342;61;20362;-61
2023/03/28 10:46:36;0.00;0.00;0.62;0.00;0.00;0.62;7.57;5.20;;;22.80;23.80;;;;;;2268403;61;20817;-63
2023/03/28 10:49:44;0.00;0.00;0.62;0.00;0.00;0.62;6.97;5.17;;;22.90;23.90;;;;;;2268743;61;20365;-65
2023/03/28 10:52:43;0.00;0.00;0.62;0.00;0.00;0.62;6.97;5.23;;;22.90;23.90;;;;;;2268779;61;20372;-66
2023/03/28 10:55:39;0.00;0.00;0.62;0.00;0.00;0.62;6.93;6.03;;;22.90;23.90;;;;;;2266194;61;20436;-57
2023/03/28 10:58:39;0.00;0.00;0.62;0.00;0.00;0.62;8.17;5.50;;;23.00;24.00;;;;;;2269462;61;20758;-64
2023/03/28 11:01:43;0.00;0.00;0.62;0.00;0.00;0.62;7.13;5.60;;;23.00;24.00;;;;;;2268354;61;20369;-62
2023/03/28 11:04:54;0.00;0.00;0.62;0.00;0.00;0.62;6.43;5.67;;;23.00;23.90;;;;;;2266508;61;20358;-62
2023/03/28 11:07:47;0.00;0.00;0.62;0.00;0.00;0.62;8.40;5.20;;;23.10;24.00;;;;;;2269073;61;20687;-62
2023/03/28 11:10:50;0.00;0.00;0.62;0.00;0.00;0.62;5.43;4.90;;;23.10;23.90;;;;;;2268448;61;20358;-65
2023/03/28 11:13:55;0.00;0.00;0.62;0.00;0.00;0.62;6.67;5.10;;;23.10;23.90;;;;;;2269101;61;20362;-60
2023/03/28 11:16:52;0.00;0.00;0.62;0.00;0.00;0.62;5.60;4.60;;;23.10;23.90;;;;;;2268558;61;20445;-62
2023/03/28 11:20:20;0.00;0.00;0.62;0.00;0.00;0.62;5.50;4.90;;;23.20;24.50;;;;;;2268968;61;20369;-62
2023/03/28 11:23:43;0.00;0.00;0.62;0.00;0.00;0.62;5.47;4.73;;;23.20;24.00;;;;;;2271170;61;20776;-64
2023/03/28 11:26:52;0.00;0.00;0.62;0.00;0.00;0.62;6.10;4.90;;;23.30;24.00;;;;;;2273050;61;20377;-61
2023/03/28 11:30:12;0.00;0.00;0.62;0.00;0.00;0.62;5.13;4.63;;;23.30;23.90;;;;;;2269888;61;20394;-62